Time;durP1;ratioP1;P1;durP2;ratioP2;P2;SDS_P1;SDS_P2;PMS_P1;PMS_P2;Temp;Humidity;BMP_temperature;BMP_pressure;BME280_temperature;BME280_humidity;BME280_pressure;Samples;Min_cycle;Max_cycle;Signal;HPM_P1;HPM_P2
2022/09/14 00:00:55;;;;;;;4.30;2.10;;;19.90;92.40;;;;;;4999353;28;20030;-68
2022/09/14 00:03:21;;;;;;;6.13;2.05;;;19.90;92.70;;;;;;5014423;28;20040;-68
2022/09/14 00:05:47;;;;;;;6.82;1.80;;;19.80;93.50;;;;;;5017762;28;20440;-68
2022/09/14 00:08:13;;;;;;;4.20;1.92;;;19.80;93.70;;;;;;5004349;28;20156;-67
2022/09/14 00:10:41;;;;;;;6.32;1.70;;;19.70;94.00;;;;;;5012447;28;20085;-68
2022/09/14 00:13:07;;;;;;;3.88;1.80;;;19.60;94.40;;;;;;5005061;28;20037;-67
2022/09/14 00:15:40;;;;;;;6.78;2.00;;;19.60;94.50;;;;;;5006211;28;20493;-67
2022/09/14 00:18:08;;;;;;;4.72;1.90;;;19.60;94.50;;;;;;5006247;28;20053;-68
2022/09/14 00:20:34;;;;;;;4.03;2.13;;;19.50;94.40;;;;;;5013901;28;20033;-68
2022/09/14 00:23:00;;;;;;;7.32;2.00;;;19.50;95.10;;;;;;5021478;28;20038;-68
2022/09/14 00:25:26;;;;;;;5.72;2.30;;;19.40;95.00;;;;;;5012497;28;20392;-67
2022/09/14 00:27:56;;;;;;;4.78;2.05;;;19.40;95.20;;;;;;5006692;28;20029;-67
2022/09/14 00:30:22;;;;;;;4.07;1.90;;;19.30;95.40;;;;;;5002808;28;20389;-68
2022/09/14 00:32:49;;;;;;;5.45;1.90;;;19.30;95.50;;;;;;5005185;28;20052;-68
2022/09/14 00:35:15;;;;;;;4.13;1.98;;;19.30;95.30;;;;;;5007286;28;20021;-68
2022/09/14 00:37:41;;;;;;;7.72;2.00;;;19.30;94.90;;;;;;5005407;28;20384;-68
2022/09/14 00:40:07;;;;;;;5.10;1.92;;;19.40;95.00;;;;;;4997087;28;20161;-68
2022/09/14 00:42:33;;;;;;;4.15;2.10;;;19.30;95.30;;;;;;5002551;28;20030;-68
2022/09/14 00:45:13;;;;;;;4.65;2.10;;;19.30;95.60;;;;;;5004383;28;20037;-68
2022/09/14 00:47:38;;;;;;;5.05;1.95;;;19.30;95.30;;;;;;4999372;28;20061;-68
2022/09/14 00:50:05;;;;;;;5.85;2.33;;;19.40;95.30;;;;;;5005728;28;20038;-67
2022/09/14 00:52:33;;;;;;;8.10;2.70;;;19.40;95.20;;;;;;5008798;28;20053;-68
2022/09/14 00:55:03;;;;;;;5.35;2.20;;;19.40;95.30;;;;;;4996697;28;20014;-68
2022/09/14 00:57:37;;;;;;;5.50;2.10;;;19.40;95.40;;;;;;5003834;28;20318;-68
2022/09/14 01:00:08;;;;;;;5.05;1.90;;;19.50;94.90;;;;;;5012435;28;20034;-68
2022/09/14 01:02:34;;;;;;;5.07;2.00;;;19.60;94.70;;;;;;5007138;28;20531;-67
2022/09/14 01:04:59;;;;;;;4.80;2.17;;;19.60;94.90;;;;;;5007346;28;20028;-67
2022/09/14 01:08:08;;;;;;;3.83;1.77;;;19.60;94.60;;;;;;5012816;28;20022;-68
2022/09/14 01:11:30;;;;;;;5.53;2.08;;;19.70;94.60;;;;;;4996197;28;20040;-67
2022/09/14 01:14:07;;;;;;;5.18;2.20;;;19.80;94.10;;;;;;4948323;28;20127;-67
2022/09/14 01:16:39;;;;;;;5.75;2.58;;;19.60;95.60;;;;;;4998465;28;20044;-68
2022/09/14 01:19:14;;;;;;;6.15;2.45;;;19.50;95.90;;;;;;5008555;28;20041;-68
2022/09/14 01:21:42;;;;;;;8.38;2.22;;;19.50;95.40;;;;;;5017107;28;20032;-68
2022/09/14 01:24:32;;;;;;;7.45;2.13;;;19.50;95.20;;;;;;5013696;28;20161;-68
2022/09/14 01:26:57;;;;;;;9.02;2.42;;;19.70;94.50;;;;;;5006675;28;20029;-68
2022/09/14 01:29:44;;;;;;;8.75;2.25;;;19.90;93.30;;;;;;5014336;28;20839;-67
2022/09/14 01:32:20;;;;;;;5.07;1.95;;;20.20;91.90;;;;;;4994020;28;20083;-67
2022/09/14 01:34:51;;;;;;;5.22;2.22;;;20.40;92.70;;;;;;5006102;28;20395;-68
2022/09/14 01:37:56;;;;;;;4.82;2.28;;;20.40;92.30;;;;;;4995743;28;20466;-68
2022/09/14 01:40:38;;;;;;;6.35;2.15;;;20.40;91.90;;;;;;5008521;28;20171;-68
2022/09/14 01:43:16;;;;;;;5.78;2.10;;;20.50;91.40;;;;;;5004030;28;20089;-69
2022/09/14 01:45:48;;;;;;;5.03;2.15;;;20.60;91.40;;;;;;5006626;28;20022;-67
2022/09/14 01:48:18;;;;;;;7.65;2.30;;;20.60;91.20;;;;;;5023363;28;20045;-68
2022/09/14 01:50:49;;;;;;;5.35;2.45;;;20.70;90.80;;;;;;5025595;28;20053;-67
2022/09/14 01:53:18;;;;;;;5.25;2.25;;;20.60;92.50;;;;;;5004921;28;20053;-67
2022/09/14 01:55:57;;;;;;;4.50;2.20;;;20.20;93.00;;;;;;4998511;28;20018;-68
2022/09/14 01:58:38;;;;;;;6.55;2.10;;;20.00;93.10;;;;;;5003020;28;20104;-68
2022/09/14 02:01:08;;;;;;;5.72;2.38;;;19.80;93.20;;;;;;5010486;28;20092;-68
2022/09/14 02:03:45;;;;;;;5.97;2.20;;;19.70;93.60;;;;;;5005148;28;20025;-68
2022/09/14 02:06:34;;;;;;;6.45;2.42;;;19.60;93.70;;;;;;5013178;28;20030;-68
2022/09/14 02:09:00;;;;;;;5.75;2.00;;;19.50;93.70;;;;;;5013902;28;20026;-68
2022/09/14 02:11:26;;;;;;;6.50;2.00;;;19.50;93.90;;;;;;5000960;28;20026;-68
2022/09/14 02:13:52;;;;;;;4.43;2.22;;;19.50;94.10;;;;;;5012672;28;20052;-68
2022/09/14 02:16:19;;;;;;;4.47;2.30;;;19.40;94.30;;;;;;5006640;28;20021;-68
2022/09/14 02:18:44;;;;;;;4.90;2.42;;;19.40;94.40;;;;;;5001583;28;20123;-68
2022/09/14 02:21:20;;;;;;;6.68;2.78;;;19.30;94.50;;;;;;5014777;28;20025;-67
2022/09/14 02:23:47;;;;;;;5.20;2.65;;;19.30;95.20;;;;;;5009222;28;20034;-68
2022/09/14 02:26:15;;;;;;;4.68;2.25;;;19.00;95.90;;;;;;5004463;28;20026;-67
2022/09/14 02:28:41;;;;;;;6.20;2.28;;;18.80;96.50;;;;;;5013694;28;20104;-68
2022/09/14 02:31:32;;;;;;;5.80;2.80;;;18.70;96.60;;;;;;5020636;28;20113;-68
2022/09/14 02:34:45;;;;;;;6.03;2.50;;;18.70;96.60;;;;;;5017881;28;20017;-68
2022/09/14 02:37:32;;;;;;;4.97;2.70;;;18.50;97.00;;;;;;5005962;28;20461;-68
2022/09/14 02:40:16;;;;;;;6.35;2.80;;;18.30;96.80;;;;;;5000432;28;20084;-68
2022/09/14 02:43:04;;;;;;;5.78;2.78;;;18.30;96.40;;;;;;5002331;28;20366;-68
2022/09/14 02:46:14;;;;;;;5.20;2.78;;;18.20;96.40;;;;;;5012755;28;20022;-67
2022/09/14 02:48:49;;;;;;;6.07;2.78;;;18.10;96.30;;;;;;4999220;28;20046;-67
2022/09/14 02:51:31;;;;;;;6.85;2.47;;;18.10;96.00;;;;;;4997519;28;20092;-68
2022/09/14 02:54:05;;;;;;;5.38;2.70;;;18.10;95.30;;;;;;5009871;28;20041;-68
2022/09/14 02:56:32;;;;;;;6.38;2.97;;;18.10;95.40;;;;;;5005272;28;20334;-68
2022/09/14 02:58:57;;;;;;;7.20;3.50;;;18.20;97.50;;;;;;5011041;28;20121;-68
2022/09/14 03:01:23;;;;;;;5.75;2.90;;;18.40;96.10;;;;;;4992616;28;20389;-67
2022/09/14 03:03:49;;;;;;;10.38;3.17;;;18.40;96.00;;;;;;5006445;28;20038;-69
2022/09/14 03:06:15;;;;;;;7.85;3.30;;;18.40;95.50;;;;;;5011854;28;20022;-69
2022/09/14 03:08:41;;;;;;;6.30;3.63;;;18.30;95.00;;;;;;5013933;28;20121;-69
2022/09/14 03:11:10;;;;;;;10.15;4.55;;;18.10;93.30;;;;;;5000446;28;20326;-69
2022/09/14 03:13:37;;;;;;;10.50;3.47;;;17.90;91.00;;;;;;4999853;28;20057;-68
2022/09/14 03:16:08;;;;;;;10.48;3.70;;;17.80;91.10;;;;;;5010115;28;20102;-68
2022/09/14 03:18:37;;;;;;;9.23;3.70;;;17.90;91.60;;;;;;5005207;28;20096;-67
2022/09/14 03:21:13;;;;;;;10.88;4.00;;;17.90;91.30;;;;;;5014741;28;20030;-67
2022/09/14 03:23:43;;;;;;;8.18;3.90;;;18.00;90.60;;;;;;5013137;28;20034;-67
2022/09/14 03:26:16;;;;;;;10.57;4.20;;;18.00;90.40;;;;;;5020381;28;20025;-67
2022/09/14 03:28:42;;;;;;;8.88;4.10;;;18.00;90.30;;;;;;5004434;28;20045;-67
2022/09/14 03:31:10;;;;;;;7.45;3.90;;;18.10;90.30;;;;;;4999125;28;20029;-68
2022/09/14 03:33:36;;;;;;;6.97;3.95;;;18.10;91.10;;;;;;4998884;28;20156;-69
2022/09/14 03:36:20;;;;;;;7.95;3.90;;;18.10;90.70;;;;;;4997364;28;20034;-67
2022/09/14 03:38:49;;;;;;;8.20;4.15;;;18.10;91.00;;;;;;4989432;28;20058;-68
2022/09/14 03:41:16;;;;;;;8.68;4.38;;;18.10;91.40;;;;;;5001810;28;20034;-68
2022/09/14 03:43:43;;;;;;;10.27;3.67;;;18.00;91.00;;;;;;5002782;28;20055;-67
2022/09/14 03:46:11;;;;;;;8.13;3.88;;;17.90;90.30;;;;;;4986947;28;20022;-68
2022/09/14 03:48:37;;;;;;;11.52;3.55;;;17.70;90.90;;;;;;5000886;28;20184;-67
2022/09/14 03:51:05;;;;;;;6.15;3.42;;;17.60;92.50;;;;;;5000657;28;20058;-68
2022/09/14 03:53:34;;;;;;;9.00;3.83;;;17.60;92.00;;;;;;5008420;28;20073;-68
2022/09/14 03:56:00;;;;;;;8.85;4.55;;;17.50;90.80;;;;;;5003604;28;20426;-69
2022/09/14 03:58:29;;;;;;;11.70;5.03;;;17.40;90.90;;;;;;5001217;28;20065;-68
2022/09/14 04:00:56;;;;;;;10.13;4.68;;;17.20;89.80;;;;;;5007945;28;20040;-68
2022/09/14 04:03:22;;;;;;;8.85;4.63;;;17.10;88.50;;;;;;5015618;28;20076;-68
2022/09/14 04:05:55;;;;;;;11.32;5.00;;;17.10;87.60;;;;;;5002881;28;20038;-68
2022/09/14 04:08:20;;;;;;;7.80;4.82;;;17.00;86.60;;;;;;5012362;28;20038;-68
2022/09/14 04:10:49;;;;;;;9.05;5.20;;;16.90;85.70;;;;;;5005790;28;20029;-68
2022/09/14 04:13:17;;;;;;;7.90;4.22;;;16.90;84.80;;;;;;5008277;28;20080;-68
2022/09/14 04:15:43;;;;;;;9.57;5.07;;;16.90;83.90;;;;;;5011632;28;20015;-68
2022/09/14 04:18:08;;;;;;;8.63;4.65;;;16.90;83.00;;;;;;5007569;28;20076;-68
2022/09/14 04:20:34;;;;;;;10.35;4.82;;;17.00;81.90;;;;;;5002956;28;20081;-68
2022/09/14 04:23:00;;;;;;;8.70;4.60;;;17.10;82.80;;;;;;5015208;28;20038;-68
2022/09/14 04:25:25;;;;;;;8.27;4.38;;;17.20;83.50;;;;;;5010656;28;20037;-70
2022/09/14 04:27:51;;;;;;;11.57;4.20;;;17.40;84.40;;;;;;5012761;28;20351;-68
2022/09/14 04:30:17;;;;;;;7.13;4.07;;;17.50;86.70;;;;;;5012210;28;20334;-68
2022/09/14 04:32:43;;;;;;;9.32;3.65;;;17.60;88.20;;;;;;5001131;28;20148;-68
2022/09/14 04:35:09;;;;;;;9.63;3.90;;;17.80;90.70;;;;;;5001214;28;20030;-68
2022/09/14 04:37:34;;;;;;;8.95;4.13;;;18.10;92.50;;;;;;5002804;28;20330;-68
2022/09/14 04:40:00;;;;;;;10.05;3.63;;;18.30;93.50;;;;;;5007615;28;20125;-68
2022/09/14 04:42:26;;;;;;;14.45;4.10;;;18.70;94.80;;;;;;5006198;28;20049;-69
2022/09/14 04:44:51;;;;;;;6.90;3.40;;;18.80;94.90;;;;;;5012032;28;20441;-68
2022/09/14 04:47:19;;;;;;;8.63;3.75;;;18.80;95.50;;;;;;5010748;28;20050;-68
2022/09/14 04:49:45;;;;;;;7.38;3.70;;;18.80;95.60;;;;;;5011279;28;20030;-69
2022/09/14 04:52:11;;;;;;;8.98;3.97;;;18.80;95.50;;;;;;5019627;28;20082;-68
2022/09/14 04:54:36;;;;;;;9.40;3.35;;;18.80;95.00;;;;;;5014415;28;20485;-69
2022/09/14 04:57:02;;;;;;;7.38;3.08;;;18.80;96.20;;;;;;5007786;28;20018;-69
2022/09/14 04:59:28;;;;;;;6.28;2.80;;;18.90;96.20;;;;;;5019655;28;20072;-69
2022/09/14 05:01:53;;;;;;;5.53;2.45;;;19.00;96.80;;;;;;5010011;28;20034;-68
2022/09/14 05:04:28;;;;;;;4.03;2.00;;;18.90;96.60;;;;;;5009447;28;20112;-69
2022/09/14 05:06:55;;;;;;;4.50;2.10;;;19.00;97.10;;;;;;5013501;28;20455;-68
2022/09/14 05:09:20;;;;;;;6.70;1.98;;;19.10;97.00;;;;;;5010222;28;20314;-68
2022/09/14 05:11:48;;;;;;;4.10;1.67;;;19.10;97.00;;;;;;5010648;28;20030;-67
2022/09/14 05:14:14;;;;;;;5.25;1.80;;;19.30;98.00;;;;;;5011825;28;20034;-68
2022/09/14 05:16:41;;;;;;;4.32;1.92;;;19.50;97.90;;;;;;5011391;28;20330;-68
2022/09/14 05:19:10;;;;;;;6.10;1.90;;;19.60;97.60;;;;;;5009602;28;20104;-69
2022/09/14 05:21:36;;;;;;;6.45;1.80;;;19.70;97.70;;;;;;5011359;28;20018;-68
2022/09/14 05:24:07;;;;;;;4.72;1.80;;;19.70;97.60;;;;;;5017763;28;20034;-68
2022/09/14 05:26:35;;;;;;;4.55;1.73;;;19.80;97.80;;;;;;5012474;28;20419;-68
2022/09/14 05:29:01;;;;;;;7.03;1.75;;;19.90;97.60;;;;;;5013701;28;20128;-68
2022/09/14 05:31:30;;;;;;;4.63;2.00;;;19.90;97.50;;;;;;5005009;28;20041;-68
2022/09/14 05:33:56;;;;;;;5.25;2.20;;;20.00;97.40;;;;;;5004596;28;20057;-68
2022/09/14 05:36:23;;;;;;;5.13;1.95;;;20.00;97.50;;;;;;5008054;28;20022;-68
2022/09/14 05:38:49;;;;;;;5.45;2.25;;;20.00;97.20;;;;;;5004470;28;20030;-68
2022/09/14 05:41:15;;;;;;;6.90;2.35;;;20.10;97.40;;;;;;5006916;28;20072;-68
2022/09/14 05:43:42;;;;;;;7.78;2.58;;;20.10;97.40;;;;;;5004824;28;20068;-68
2022/09/14 05:46:14;;;;;;;6.05;2.60;;;20.20;97.40;;;;;;5009301;28;20124;-68
2022/09/14 05:48:39;;;;;;;6.95;2.22;;;20.20;97.70;;;;;;5007035;28;20053;-68
2022/09/14 05:51:10;;;;;;;5.45;2.72;;;20.20;97.40;;;;;;5006420;28;20030;-68
2022/09/14 05:53:36;;;;;;;4.60;2.40;;;20.20;97.40;;;;;;5006149;28;20061;-68
2022/09/14 05:56:05;;;;;;;5.93;2.53;;;20.30;97.30;;;;;;5005894;28;20052;-66
2022/09/14 05:58:31;;;;;;;8.13;2.47;;;20.30;97.30;;;;;;5007323;28;20022;-68
2022/09/14 06:00:57;;;;;;;7.47;2.75;;;20.40;97.20;;;;;;5008302;28;20040;-68
2022/09/14 06:03:26;;;;;;;6.13;2.53;;;20.50;97.00;;;;;;5007624;28;20038;-68
2022/09/14 06:05:56;;;;;;;7.68;2.50;;;20.50;97.10;;;;;;5008116;28;20456;-68
2022/09/14 06:08:22;;;;;;;6.05;2.47;;;20.50;97.10;;;;;;5004705;28;20109;-68
2022/09/14 06:10:48;;;;;;;9.02;2.50;;;20.50;97.10;;;;;;4986593;28;20029;-68
2022/09/14 06:13:14;;;;;;;6.63;2.47;;;20.50;97.10;;;;;;5006460;28;20493;-68
2022/09/14 06:15:40;;;;;;;7.80;2.97;;;20.50;97.10;;;;;;5009578;28;20097;-67
2022/09/14 06:18:11;;;;;;;7.25;2.60;;;20.50;97.00;;;;;;5012797;28;20022;-67
2022/09/14 06:20:36;;;;;;;6.00;2.78;;;20.50;97.00;;;;;;5010176;28;20037;-67
2022/09/14 06:23:02;;;;;;;6.78;2.40;;;20.60;96.90;;;;;;5008816;28;20025;-67
2022/09/14 06:25:27;;;;;;;8.05;2.90;;;20.60;96.70;;;;;;5013261;28;20295;-68
2022/09/14 06:27:54;;;;;;;6.22;2.90;;;20.70;96.70;;;;;;5014970;28;20034;-68
2022/09/14 06:30:20;;;;;;;5.85;2.50;;;20.80;96.70;;;;;;5013992;28;20036;-68
2022/09/14 06:32:45;;;;;;;7.10;2.88;;;20.80;96.50;;;;;;5006556;28;20474;-68
2022/09/14 06:35:11;;;;;;;6.15;2.50;;;20.80;96.40;;;;;;5005674;28;20105;-68
2022/09/14 06:37:36;;;;;;;7.22;2.35;;;20.80;96.50;;;;;;5008759;28;20026;-68
2022/09/14 06:40:03;;;;;;;5.97;2.58;;;20.80;96.40;;;;;;5009531;28;20042;-68
2022/09/14 06:42:29;;;;;;;7.93;2.58;;;20.80;96.70;;;;;;5004907;28;20038;-68
2022/09/14 06:44:55;;;;;;;10.55;2.83;;;20.80;96.70;;;;;;5011509;28;20030;-68
2022/09/14 06:47:21;;;;;;;11.02;2.80;;;20.80;96.60;;;;;;5012671;28;20426;-68
2022/09/14 06:49:48;;;;;;;5.55;2.67;;;20.90;96.40;;;;;;5006318;28;20030;-68
2022/09/14 06:52:14;;;;;;;6.85;2.70;;;21.00;96.40;;;;;;5003365;28;20068;-68
2022/09/14 06:54:40;;;;;;;6.35;2.60;;;21.00;96.30;;;;;;5006407;28;20346;-68
2022/09/14 06:57:06;;;;;;;8.27;2.88;;;21.00;96.20;;;;;;5012456;28;20021;-68
2022/09/14 06:59:34;;;;;;;5.28;2.60;;;21.00;96.20;;;;;;5006829;28;20044;-69
2022/09/14 07:02:00;;;;;;;6.68;2.65;;;21.00;96.20;;;;;;5013671;28;20065;-69
2022/09/14 07:04:26;;;;;;;5.45;2.72;;;21.10;96.20;;;;;;5013550;28;20065;-68
2022/09/14 07:06:54;;;;;;;6.65;2.80;;;21.10;95.90;;;;;;5012583;28;20025;-68
2022/09/14 07:09:20;;;;;;;7.38;2.78;;;21.10;95.90;;;;;;5013263;28;20096;-68
2022/09/14 07:11:48;;;;;;;5.15;2.60;;;21.10;96.10;;;;;;5000974;28;20072;-68
2022/09/14 07:14:15;;;;;;;7.70;2.70;;;21.10;96.10;;;;;;5030710;28;20439;-68
2022/09/14 07:16:41;;;;;;;8.68;2.85;;;21.20;96.20;;;;;;5036352;28;20034;-68
2022/09/14 07:19:10;;;;;;;6.35;2.78;;;21.30;96.40;;;;;;5027675;28;20326;-69
2022/09/14 07:21:36;;;;;;;6.65;2.80;;;21.40;96.20;;;;;;5016588;28;20048;-68
2022/09/14 07:24:02;;;;;;;7.03;2.70;;;21.40;96.20;;;;;;5025633;28;20018;-68
2022/09/14 07:26:34;;;;;;;7.25;2.80;;;21.40;96.10;;;;;;5015488;28;20044;-68
2022/09/14 07:29:02;;;;;;;9.27;2.88;;;21.40;96.00;;;;;;5022247;28;20026;-68
2022/09/14 07:31:32;;;;;;;6.97;2.60;;;21.40;96.00;;;;;;5029796;28;20088;-68
2022/09/14 07:34:02;;;;;;;7.72;2.80;;;21.50;96.20;;;;;;5016102;28;20088;-68
2022/09/14 07:36:29;;;;;;;6.60;2.58;;;21.50;95.80;;;;;;5015602;28;20080;-67
2022/09/14 07:38:55;;;;;;;10.13;3.10;;;21.60;95.80;;;;;;5027182;28;20075;-67
2022/09/14 07:41:24;;;;;;;5.57;2.53;;;21.60;95.20;;;;;;5035092;28;20395;-68
2022/09/14 07:43:51;;;;;;;6.38;2.40;;;21.70;95.40;;;;;;5007325;28;20026;-68
2022/09/14 07:46:18;;;;;;;9.18;2.60;;;21.80;95.40;;;;;;5015082;28;20037;-67
2022/09/14 07:48:43;;;;;;;9.90;2.97;;;21.90;95.00;;;;;;5023913;28;20103;-68
2022/09/14 07:51:09;;;;;;;7.40;2.55;;;22.20;94.30;;;;;;5036059;28;20022;-68
2022/09/14 07:53:37;;;;;;;4.63;2.30;;;22.30;93.90;;;;;;5015637;28;20089;-68
2022/09/14 07:56:05;;;;;;;10.25;2.50;;;22.50;93.30;;;;;;5014320;28;20041;-68
2022/09/14 07:58:31;;;;;;;4.85;2.42;;;22.40;93.30;;;;;;5030419;28;20033;-68
2022/09/14 08:00:58;;;;;;;4.88;2.22;;;22.20;93.50;;;;;;5017083;28;20319;-68
2022/09/14 08:03:24;;;;;;;10.32;2.75;;;22.10;93.50;;;;;;5031258;28;20025;-67
2022/09/14 08:06:00;;;;;;;6.82;2.72;;;22.20;93.60;;;;;;5020183;28;20037;-68
2022/09/14 08:08:34;;;;;;;5.13;2.38;;;22.30;93.60;;;;;;5003093;28;20018;-68
2022/09/14 08:11:06;;;;;;;5.03;2.42;;;22.60;92.40;;;;;;5014132;28;20052;-68
2022/09/14 08:13:36;;;;;;;9.07;2.50;;;22.50;92.80;;;;;;5035949;28;20067;-68
2022/09/14 08:16:03;;;;;;;5.57;2.20;;;22.70;92.50;;;;;;5034048;28;20028;-68
2022/09/14 08:18:29;;;;;;;5.07;2.17;;;23.00;91.00;;;;;;5014907;28;20069;-68
2022/09/14 08:20:55;;;;;;;6.00;2.33;;;23.20;90.90;;;;;;5018926;28;20073;-68
2022/09/14 08:23:24;;;;;;;6.82;2.80;;;23.30;90.80;;;;;;5035805;28;20029;-68
2022/09/14 08:25:49;;;;;;;6.47;2.50;;;23.00;90.70;;;;;;5028222;28;20029;-69
2022/09/14 08:28:15;;;;;;;8.85;2.53;;;22.90;91.00;;;;;;5035940;28;20034;-68
2022/09/14 08:30:40;;;;;;;6.13;2.70;;;22.80;91.60;;;;;;5033545;28;20033;-69
2022/09/14 08:33:06;;;;;;;5.07;2.30;;;22.80;91.90;;;;;;5035676;28;20117;-68
2022/09/14 08:35:32;;;;;;;8.27;2.40;;;23.00;91.20;;;;;;5026251;28;20473;-69
2022/09/14 08:37:57;;;;;;;7.57;2.55;;;23.20;91.10;;;;;;5015929;28;20443;-68
2022/09/14 08:40:26;;;;;;;6.60;2.20;;;23.20;90.60;;;;;;5016677;28;20038;-68
2022/09/14 08:42:55;;;;;;;8.18;2.60;;;23.30;90.50;;;;;;5019808;28;20040;-68
2022/09/14 08:45:23;;;;;;;5.05;2.10;;;23.30;90.80;;;;;;5018105;28;20110;-68
2022/09/14 08:47:50;;;;;;;8.15;2.40;;;23.40;90.50;;;;;;5019485;28;20125;-68
2022/09/14 08:50:19;;;;;;;6.28;2.25;;;23.80;88.90;;;;;;5033517;28;20354;-68
2022/09/14 08:52:53;;;;;;;9.35;2.58;;;24.30;87.60;;;;;;5019649;28;20104;-68
2022/09/14 08:55:37;;;;;;;6.20;2.47;;;23.80;88.80;;;;;;5016335;28;20029;-68
2022/09/14 08:58:09;;;;;;;7.90;2.60;;;23.40;90.70;;;;;;5019524;28;20081;-68
2022/09/14 09:00:51;;;;;;;7.25;2.60;;;23.60;90.30;;;;;;5025551;28;20108;-68
2022/09/14 09:03:52;;;;;;;14.18;2.83;;;23.50;90.40;;;;;;5037925;28;20033;-68
2022/09/14 09:06:45;;;;;;;6.88;2.78;;;23.40;91.30;;;;;;5020108;28;20030;-68
2022/09/14 09:09:38;;;;;;;7.38;2.65;;;23.80;90.10;;;;;;5019280;28;20026;-67
2022/09/14 09:12:04;;;;;;;6.95;2.72;;;23.70;90.10;;;;;;5038373;28;20104;-68
2022/09/14 09:14:42;;;;;;;6.53;2.92;;;23.70;90.80;;;;;;5039048;28;20087;-67
2022/09/14 09:17:33;;;;;;;7.03;2.47;;;23.60;89.80;;;;;;5018107;28;20075;-67
2022/09/14 09:20:17;;;;;;;5.97;2.40;;;23.60;90.20;;;;;;5009893;28;20116;-69
2022/09/14 09:22:49;;;;;;;7.67;2.90;;;23.80;89.50;;;;;;5016199;28;20418;-68
2022/09/14 09:25:25;;;;;;;8.57;2.53;;;24.10;89.00;;;;;;5035719;28;20028;-69
2022/09/14 09:28:00;;;;;;;11.77;3.25;;;25.00;87.10;;;;;;5038819;28;20079;-68
2022/09/14 09:30:28;;;;;;;10.10;3.03;;;24.70;86.60;;;;;;5021312;28;20105;-68
2022/09/14 09:32:56;;;;;;;6.80;2.35;;;24.20;88.50;;;;;;5027465;28;20434;-67
2022/09/14 09:35:25;;;;;;;7.95;3.10;;;24.00;89.20;;;;;;5032445;28;20025;-68
2022/09/14 09:37:55;;;;;;;5.82;2.63;;;23.90;89.20;;;;;;5009317;28;20037;-67
2022/09/14 09:40:44;;;;;;;7.18;2.67;;;23.80;90.20;;;;;;5012817;28;20033;-70
2022/09/14 09:43:18;;;;;;;9.60;2.90;;;24.10;89.30;;;;;;5011627;28;20425;-68
2022/09/14 09:46:01;;;;;;;10.85;2.60;;;24.20;89.30;;;;;;5019003;28;20022;-69
2022/09/14 09:48:32;;;;;;;9.32;2.90;;;24.20;89.40;;;;;;5038112;28;20052;-68
2022/09/14 09:51:09;;;;;;;9.77;2.72;;;24.30;89.10;;;;;;5027772;28;20045;-67
2022/09/14 09:53:45;;;;;;;6.68;2.50;;;24.90;87.70;;;;;;5014581;28;20033;-68
2022/09/14 09:56:59;;;;;;;6.60;2.47;;;25.30;85.80;;;;;;5017337;28;20398;-69
2022/09/14 09:59:38;;;;;;;9.27;2.50;;;26.50;82.80;;;;;;5028729;28;20091;-69
2022/09/14 10:02:19;;;;;;;6.13;2.10;;;27.20;81.10;;;;;;5019831;28;20057;-68
2022/09/14 10:05:02;;;;;;;7.03;2.15;;;27.80;78.40;;;;;;5010243;28;20021;-69
2022/09/14 10:07:32;;;;;;;9.27;2.27;;;27.90;77.90;;;;;;5016529;28;20422;-68
2022/09/14 10:10:08;;;;;;;7.30;2.00;;;27.90;77.10;;;;;;5022488;28;20033;-68
2022/09/14 10:12:36;;;;;;;5.05;1.80;;;27.50;76.70;;;;;;5017662;28;20042;-68
2022/09/14 10:15:12;;;;;;;5.47;1.70;;;27.50;76.50;;;;;;5017267;28;20061;-68
2022/09/14 10:17:37;;;;;;;4.85;1.70;;;27.50;75.90;;;;;;5018087;28;20333;-68
2022/09/14 10:20:04;;;;;;;7.78;2.00;;;26.90;76.40;;;;;;5016767;28;20030;-68
2022/09/14 10:22:34;;;;;;;5.68;2.17;;;26.60;77.20;;;;;;5016045;28;20423;-68
2022/09/14 10:25:01;;;;;;;7.00;1.95;;;26.10;79.10;;;;;;5015393;28;20552;-69
2022/09/14 10:27:47;;;;;;;9.13;2.05;;;25.90;79.20;;;;;;5018014;28;20026;-68
2022/09/14 10:30:41;;;;;;;6.70;1.95;;;25.80;79.70;;;;;;5015641;28;20022;-68
2022/09/14 10:33:12;;;;;;;7.30;1.92;;;25.90;79.60;;;;;;5024559;28;20029;-68
2022/09/14 10:35:46;;;;;;;7.88;1.90;;;25.90;78.40;;;;;;5025242;28;20026;-69
2022/09/14 10:38:17;;;;;;;6.30;2.20;;;25.60;79.80;;;;;;5017575;28;20048;-68
2022/09/14 10:40:46;;;;;;;6.55;2.20;;;25.50;80.40;;;;;;5015430;28;20521;-69
2022/09/14 10:43:46;;;;;;;7.25;2.30;;;25.40;81.10;;;;;;5017605;28;20034;-69
2022/09/14 10:46:19;;;;;;;8.43;1.92;;;25.60;80.00;;;;;;4988373;28;20320;-68
2022/09/14 10:48:56;;;;;;;7.82;1.80;;;25.80;78.30;;;;;;5017339;28;20048;-69
2022/09/14 10:51:56;;;;;;;6.38;1.80;;;25.50;79.30;;;;;;5015249;28;22203;-69
2022/09/14 10:54:57;;;;;;;8.02;2.05;;;25.50;79.10;;;;;;4995074;28;20034;-68
2022/09/14 10:57:49;;;;;;;7.57;2.35;;;25.30;78.80;;;;;;5017500;28;20418;-68
2022/09/14 11:00:18;;;;;;;5.57;1.88;;;25.10;78.60;;;;;;5016148;28;20331;-68
2022/09/14 11:02:50;;;;;;;9.18;2.00;;;25.10;79.50;;;;;;5016193;28;20072;-70
2022/09/14 11:05:28;;;;;;;9.52;2.13;;;25.10;79.80;;;;;;5031216;28;20353;-69
2022/09/14 11:08:08;;;;;;;7.63;2.38;;;24.90;80.20;;;;;;5035198;28;20315;-69
2022/09/14 11:10:42;;;;;;;4.75;2.20;;;24.90;80.80;;;;;;5029430;28;20026;-69
2022/09/14 11:13:38;;;;;;;11.20;3.13;;;24.60;81.10;;;;;;5036811;28;20108;-69
2022/09/14 11:16:18;;;;;;;8.65;2.30;;;24.60;81.80;;;;;;5036710;28;20025;-69
2022/09/14 11:19:08;;;;;;;10.15;2.45;;;24.60;81.90;;;;;;5031505;28;20042;-69
2022/09/14 11:21:47;;;;;;;8.25;2.45;;;24.50;82.80;;;;;;5014841;28;20349;-68
2022/09/14 11:24:47;;;;;;;7.43;2.60;;;24.50;83.00;;;;;;5011170;28;20426;-69
2022/09/14 11:27:32;;;;;;;5.28;2.13;;;24.50;83.20;;;;;;5025135;28;20037;-69
2022/09/14 11:30:09;;;;;;;7.80;2.33;;;24.40;84.00;;;;;;5021515;28;20026;-69
2022/09/14 11:33:08;;;;;;;8.55;2.30;;;24.30;84.50;;;;;;5016958;28;20484;-69
2022/09/14 11:35:42;;;;;;;5.97;2.25;;;24.10;85.20;;;;;;5032765;28;20030;-68
2022/09/14 11:38:11;;;;;;;6.35;2.25;;;23.80;86.10;;;;;;5015558;28;20029;-69
2022/09/14 11:40:51;;;;;;;7.45;2.35;;;23.80;86.50;;;;;;5012728;28;20021;-69
2022/09/14 11:43:29;;;;;;;6.00;2.30;;;23.90;86.10;;;;;;5016621;28;20441;-68
2022/09/14 11:46:06;;;;;;;5.95;2.15;;;23.70;86.40;;;;;;5015280;28;20918;-69
2022/09/14 11:49:12;;;;;;;8.35;2.22;;;23.60;86.80;;;;;;5016334;28;20350;-69
2022/09/14 11:51:45;;;;;;;6.32;2.30;;;23.60;86.80;;;;;;5025505;28;20036;-68
2022/09/14 11:54:18;;;;;;;6.88;2.10;;;23.50;88.70;;;;;;5036157;28;20056;-69
2022/09/14 11:56:58;;;;;;;6.53;2.50;;;23.30;88.50;;;;;;5017076;28;20026;-69
2022/09/14 11:59:54;;;;;;;6.70;2.45;;;23.00;88.30;;;;;;5014625;28;20033;-69
2022/09/14 12:02:26;;;;;;;4.63;1.90;;;22.90;88.50;;;;;;5014268;28;20038;-67
2022/09/14 12:05:04;;;;;;;5.85;2.30;;;22.90;87.20;;;;;;5021186;28;20731;-68
2022/09/14 12:07:41;;;;;;;5.57;2.22;;;23.00;85.70;;;;;;5010551;28;20026;-67
2022/09/14 12:10:12;;;;;;;6.75;1.90;;;23.00;86.70;;;;;;5027068;28;20317;-67
2022/09/14 12:12:43;;;;;;;7.85;1.90;;;23.00;85.80;;;;;;5035841;28;20048;-67
2022/09/14 12:15:34;;;;;;;4.90;1.73;;;22.90;85.50;;;;;;5019782;28;20080;-69
2022/09/14 12:18:05;;;;;;;7.03;2.35;;;22.60;86.50;;;;;;4989065;28;20030;-69
2022/09/14 12:20:40;;;;;;;5.10;1.90;;;22.20;88.80;;;;;;5012609;28;20040;-68
2022/09/14 12:23:31;;;;;;;4.97;1.80;;;21.80;89.90;;;;;;5011218;28;20026;-68
2022/09/14 12:26:09;;;;;;;8.45;1.83;;;21.60;91.40;;;;;;5015388;28;20096;-68
2022/09/14 12:28:35;;;;;;;6.00;1.77;;;21.50;91.70;;;;;;5016830;28;20038;-69
2022/09/14 12:31:03;;;;;;;4.50;1.45;;;21.50;91.30;;;;;;5035557;28;20053;-68
2022/09/14 12:34:14;;;;;;;4.03;1.90;;;21.50;91.00;;;;;;5033794;28;20017;-68
2022/09/14 12:36:40;;;;;;;6.80;2.50;;;21.60;91.40;;;;;;4981484;28;20350;-68
2022/09/14 12:39:30;;;;;;;6.25;2.20;;;21.50;91.80;;;;;;5008116;28;20025;-68
2022/09/14 12:41:57;;;;;;;6.00;2.30;;;21.00;93.80;;;;;;5034945;28;20065;-67
2022/09/14 12:44:37;;;;;;;8.38;2.35;;;20.90;94.60;;;;;;5033530;28;20029;-67
2022/09/14 12:47:24;;;;;;;8.25;2.78;;;20.90;94.10;;;;;;5035594;28;20300;-67
2022/09/14 12:49:52;;;;;;;6.07;2.30;;;21.00;94.40;;;;;;5025324;28;20040;-68
2022/09/14 12:52:51;;;;;;;5.28;2.22;;;21.20;94.30;;;;;;5014718;28;20414;-67
2022/09/14 12:55:31;;;;;;;4.95;2.33;;;21.20;93.90;;;;;;5026734;28;20037;-68
2022/09/14 12:58:20;;;;;;;8.82;2.72;;;20.60;95.40;;;;;;5035614;28;20040;-68
2022/09/14 13:01:13;;;;;;;5.90;2.85;;;20.20;96.60;;;;;;5030627;28;20061;-68
2022/09/14 13:03:49;;;;;;;8.10;3.08;;;19.80;96.20;;;;;;5014312;28;20296;-67
2022/09/14 13:06:16;;;;;;;6.72;2.72;;;19.70;96.40;;;;;;5011487;28;20036;-67
2022/09/14 13:08:52;;;;;;;5.68;2.38;;;19.80;96.60;;;;;;5015466;28;20026;-67
2022/09/14 13:11:30;;;;;;;8.05;2.80;;;19.90;97.30;;;;;;5013977;28;20316;-67
2022/09/14 13:14:00;;;;;;;10.02;2.95;;;20.10;96.80;;;;;;5018589;28;20060;-67